Time;durP1;ratioP1;P1;durP2;ratioP2;P2;SDS_P1;SDS_P2;PMS_P1;PMS_P2;Temp;Humidity;BMP_temperature;BMP_pressure;BME280_temperature;BME280_humidity;BME280_pressure;Samples;Min_cycle;Max_cycle;Signal;HPM_P1;HPM_P2
2022/08/20 00:02:13;;;;;;;2.53;1.58;;;;;;;;;;4967671;28;20054;-82
2022/08/20 00:04:42;;;;;;;2.47;1.65;;;;;;;;;;4970557;28;20509;-83
2022/08/20 00:07:11;;;;;;;2.60;1.17;;;;;;;;;;4947939;28;20054;-83
2022/08/20 00:09:40;;;;;;;2.25;1.42;;;;;;;;;;4951197;28;20138;-83
2022/08/20 00:12:09;;;;;;;2.67;1.60;;;;;;;;;;4948695;28;20051;-83
2022/08/20 00:14:40;;;;;;;2.63;1.13;;;;;;;;;;4950431;28;20144;-83
2022/08/20 00:17:08;;;;;;;2.97;2.08;;;;;;;;;;4969017;28;20169;-83
2022/08/20 00:19:36;;;;;;;2.33;1.40;;;;;;;;;;4968588;28;20133;-83
2022/08/20 00:22:05;;;;;;;3.05;1.20;;;;;;;;;;4963420;28;20133;-83
2022/08/20 00:24:33;;;;;;;2.88;1.70;;;;;;;;;;4968878;28;20141;-83
2022/08/20 00:27:02;;;;;;;3.25;1.33;;;;;;;;;;4966184;28;20126;-83
2022/08/20 00:29:30;;;;;;;4.05;2.03;;;;;;;;;;4969388;28;20602;-83
2022/08/20 00:32:00;;;;;;;2.22;1.38;;;;;;;;;;4967983;28;20059;-83
2022/08/20 00:34:29;;;;;;;2.20;1.35;;;;;;;;;;4969389;28;20078;-83
2022/08/20 00:36:57;;;;;;;3.85;1.73;;;;;;;;;;4965248;28;20137;-83
2022/08/20 00:39:26;;;;;;;1.83;1.13;;;;;;;;;;4969761;28;20101;-83
2022/08/20 00:41:54;;;;;;;3.17;1.80;;;;;;;;;;4966463;28;20134;-83
2022/08/20 00:44:23;;;;;;;2.13;1.35;;;;;;;;;;4971226;28;20093;-83
2022/08/20 00:46:51;;;;;;;2.10;1.30;;;;;;;;;;4968673;28;20126;-83
2022/08/20 00:49:23;;;;;;;3.45;2.38;;;;;;;;;;4970737;28;20503;-83
2022/08/20 00:51:54;;;;;;;2.00;1.27;;;;;;;;;;4960056;28;20050;-83
2022/08/20 00:54:24;;;;;;;2.35;1.50;;;;;;;;;;4970295;28;20562;-83
2022/08/20 00:56:55;;;;;;;3.92;1.85;;;;;;;;;;4968300;28;20082;-83
2022/08/20 00:59:26;;;;;;;1.90;1.15;;;;;;;;;;4970761;28;20087;-83
2022/08/20 01:01:56;;;;;;;1.90;1.17;;;;;;;;;;4964027;28;20125;-83
2022/08/20 01:04:27;;;;;;;2.28;1.63;;;;;;;;;;4970780;28;20054;-83
2022/08/20 01:06:56;;;;;;;1.98;1.45;;;;;;;;;;4955955;28;20158;-83
2022/08/20 01:09:24;;;;;;;2.55;1.38;;;;;;;;;;4965255;28;20474;-83
2022/08/20 01:12:13;;;;;;;3.67;2.00;;;;;;;;;;4966680;28;20053;-83
2022/08/20 01:14:45;;;;;;;3.20;1.85;;;;;;;;;;4968994;28;20082;-83
2022/08/20 01:17:16;;;;;;;2.00;1.00;;;;;;;;;;4959416;28;20051;-83
2022/08/20 01:19:48;;;;;;;4.28;2.13;;;;;;;;;;4968116;28;20153;-82
2022/08/20 01:25:10;;;;;;;3.65;1.58;;;;;;;;;;4967005;28;20419;-83
2022/08/20 01:27:40;;;;;;;2.53;1.83;;;;;;;;;;4963979;28;20161;-83
2022/08/20 01:30:10;;;;;;;4.82;1.98;;;;;;;;;;4970048;28;21434;-83
2022/08/20 01:32:39;;;;;;;5.75;1.88;;;;;;;;;;4960676;28;20129;-83
2022/08/20 01:35:08;;;;;;;6.40;2.75;;;;;;;;;;4962988;28;20133;-83
2022/08/20 01:37:37;;;;;;;3.88;2.33;;;;;;;;;;4963778;28;20061;-82
2022/08/20 01:40:09;;;;;;;2.03;1.25;;;;;;;;;;4973052;28;20050;-83
2022/08/20 01:42:44;;;;;;;2.35;1.52;;;;;;;;;;4967552;28;20411;-83
2022/08/20 01:45:26;;;;;;;3.38;1.75;;;;;;;;;;4970973;28;20047;-83
2022/08/20 01:47:58;;;;;;;5.88;2.60;;;;;;;;;;4971651;28;20055;-83
2022/08/20 01:50:29;;;;;;;3.45;1.88;;;;;;;;;;4972839;28;20507;-83
2022/08/20 01:52:59;;;;;;;3.50;1.85;;;;;;;;;;4964867;28;20138;-83
2022/08/20 01:55:28;;;;;;;1.83;1.42;;;;;;;;;;4971996;28;20085;-83
2022/08/20 01:57:58;;;;;;;3.20;1.67;;;;;;;;;;4971690;28;20128;-83
2022/08/20 02:00:26;;;;;;;2.92;2.10;;;;;;;;;;4966033;28;20102;-83
2022/08/20 02:02:55;;;;;;;6.03;2.28;;;;;;;;;;4969794;28;20607;-83
2022/08/20 02:05:23;;;;;;;3.40;1.55;;;;;;;;;;4972332;28;20117;-83
2022/08/20 02:07:58;;;;;;;4.13;1.83;;;;;;;;;;4971356;28;20498;-82
2022/08/20 02:10:26;;;;;;;3.45;1.85;;;;;;;;;;4971395;28;20137;-83
2022/08/20 02:13:00;;;;;;;4.47;2.35;;;;;;;;;;4969644;28;20105;-82
2022/08/20 02:15:28;;;;;;;3.53;1.60;;;;;;;;;;4967512;28;20142;-82
2022/08/20 02:18:05;;;;;;;4.22;1.90;;;;;;;;;;4970988;28;20343;-83
2022/08/20 02:20:36;;;;;;;3.25;1.33;;;;;;;;;;4970928;28;20053;-83
2022/08/20 02:23:05;;;;;;;3.03;1.70;;;;;;;;;;4964338;28;20039;-82
2022/08/20 02:25:35;;;;;;;2.42;1.63;;;;;;;;;;4971431;28;20046;-83
2022/08/20 02:28:07;;;;;;;13.10;3.17;;;;;;;;;;4971404;28;20407;-83
2022/08/20 02:30:38;;;;;;;2.47;1.42;;;;;;;;;;4964625;28;20160;-83
2022/08/20 02:33:08;;;;;;;2.95;1.77;;;;;;;;;;4970267;28;20608;-84
2022/08/20 02:35:36;;;;;;;3.08;1.55;;;;;;;;;;4971339;28;20130;-83
2022/08/20 02:38:05;;;;;;;4.18;2.30;;;;;;;;;;4968300;28;20075;-83
2022/08/20 02:40:34;;;;;;;3.17;2.15;;;;;;;;;;4966852;28;20138;-83
2022/08/20 02:43:04;;;;;;;3.17;2.20;;;;;;;;;;4963394;28;20047;-83
2022/08/20 02:45:36;;;;;;;2.65;2.10;;;;;;;;;;4967042;28;20141;-83
2022/08/20 02:48:05;;;;;;;3.00;1.65;;;;;;;;;;4964527;28;20718;-83
2022/08/20 02:50:33;;;;;;;2.45;1.80;;;;;;;;;;4967631;28;20047;-83
2022/08/20 02:53:01;;;;;;;5.68;2.88;;;;;;;;;;4963447;28;20137;-83
2022/08/20 02:55:30;;;;;;;2.17;1.80;;;;;;;;;;4971582;28;20495;-83
2022/08/20 02:57:59;;;;;;;3.17;1.73;;;;;;;;;;4970358;28;20134;-83
2022/08/20 03:00:30;;;;;;;4.25;2.47;;;;;;;;;;4967328;28;20075;-83
2022/08/20 03:03:05;;;;;;;3.80;1.85;;;;;;;;;;4969539;28;20047;-83
2022/08/20 03:05:33;;;;;;;3.55;1.92;;;;;;;;;;4966173;28;20074;-83
2022/08/20 03:08:03;;;;;;;3.42;2.25;;;;;;;;;;4967728;28;20054;-83
2022/08/20 03:10:33;;;;;;;3.83;1.88;;;;;;;;;;4977506;28;20129;-83
2022/08/20 03:13:01;;;;;;;6.50;2.83;;;;;;;;;;4968375;28;20125;-83
2022/08/20 03:15:32;;;;;;;2.83;1.75;;;;;;;;;;4968864;28;20108;-83
2022/08/20 03:18:00;;;;;;;2.60;2.22;;;;;;;;;;4970253;28;20581;-83
2022/08/20 03:20:29;;;;;;;1.90;1.70;;;;;;;;;;4967421;28;20081;-83
2022/08/20 03:22:59;;;;;;;1.92;1.35;;;;;;;;;;4966371;28;20133;-83
2022/08/20 03:25:28;;;;;;;2.67;2.00;;;;;;;;;;4969351;28;20800;-83
2022/08/20 03:27:57;;;;;;;2.13;1.45;;;;;;;;;;4963684;28;20043;-83
2022/08/20 03:30:27;;;;;;;2.72;1.95;;;;;;;;;;4970792;28;20503;-84
2022/08/20 03:32:57;;;;;;;3.15;1.80;;;;;;;;;;4966019;28;20070;-83
2022/08/20 03:35:27;;;;;;;2.83;1.80;;;;;;;;;;4970420;28;20055;-83
2022/08/20 03:37:55;;;;;;;9.15;2.33;;;;;;;;;;4961757;28;20094;-84
2022/08/20 03:40:25;;;;;;;2.63;2.03;;;;;;;;;;4964328;28;20059;-83
2022/08/20 03:42:54;;;;;;;4.45;2.42;;;;;;;;;;4967483;28;20123;-84
2022/08/20 03:45:23;;;;;;;3.60;2.10;;;;;;;;;;4962398;28;20378;-83
2022/08/20 03:47:52;;;;;;;3.88;1.85;;;;;;;;;;4949438;29;20051;-83
2022/08/20 03:50:23;;;;;;;3.65;1.95;;;;;;;;;;4948643;28;20151;-83
2022/08/20 03:52:51;;;;;;;3.42;2.10;;;;;;;;;;4939045;28;20084;-84
2022/08/20 03:55:21;;;;;;;3.22;1.80;;;;;;;;;;4953550;28;20098;-83
2022/08/20 03:57:53;;;;;;;1.70;1.08;;;;;;;;;;4966071;28;20402;-83
2022/08/20 04:00:22;;;;;;;2.70;1.17;;;;;;;;;;4966278;28;20134;-83
2022/08/20 04:02:51;;;;;;;3.67;2.15;;;;;;;;;;4966527;28;20081;-83
2022/08/20 04:05:19;;;;;;;4.80;2.08;;;;;;;;;;4959815;28;20565;-83
2022/08/20 04:07:49;;;;;;;3.40;1.77;;;;;;;;;;4949593;28;20094;-83
2022/08/20 04:10:18;;;;;;;2.47;1.42;;;;;;;;;;4948894;29;20637;-83
2022/08/20 04:12:46;;;;;;;3.42;1.63;;;;;;;;;;4948109;29;20138;-83
2022/08/20 04:15:23;;;;;;;2.33;1.25;;;;;;;;;;4945397;28;20061;-83
2022/08/20 04:17:52;;;;;;;2.92;1.65;;;;;;;;;;4949469;28;20053;-83
2022/08/20 04:20:22;;;;;;;3.38;1.85;;;;;;;;;;4949708;28;20073;-83
2022/08/20 04:22:52;;;;;;;4.68;2.20;;;;;;;;;;4948406;28;20047;-83
2022/08/20 04:25:27;;;;;;;3.22;1.98;;;;;;;;;;4950475;28;20073;-84
2022/08/20 04:27:57;;;;;;;1.83;1.35;;;;;;;;;;4953795;28;20079;-84
2022/08/20 04:30:26;;;;;;;2.30;1.38;;;;;;;;;;4951223;28;20491;-83
2022/08/20 04:32:55;;;;;;;2.67;1.63;;;;;;;;;;4949201;28;20063;-83
2022/08/20 04:35:24;;;;;;;3.88;1.80;;;;;;;;;;4948102;28;20047;-83
2022/08/20 04:37:59;;;;;;;2.92;2.05;;;;;;;;;;4943830;28;20138;-83
2022/08/20 04:43:15;;;;;;;5.78;2.70;;;;;;;;;;4946738;28;20094;-83
2022/08/20 04:45:44;;;;;;;3.17;1.45;;;;;;;;;;4950569;28;20083;-83
2022/08/20 04:48:12;;;;;;;2.97;1.77;;;;;;;;;;4947163;28;20555;-83
2022/08/20 04:50:43;;;;;;;3.28;2.00;;;;;;;;;;4943770;28;20047;-83
2022/08/20 04:53:15;;;;;;;2.13;1.08;;;;;;;;;;4947043;28;20036;-83
2022/08/20 04:55:44;;;;;;;5.50;1.80;;;;;;;;;;4956655;28;20082;-83
2022/08/20 04:58:16;;;;;;;3.00;1.70;;;;;;;;;;4965952;28;20074;-83
2022/08/20 05:00:47;;;;;;;10.00;2.13;;;;;;;;;;4961848;28;20061;-83
2022/08/20 05:03:15;;;;;;;3.63;1.95;;;;;;;;;;4957411;28;20051;-83
2022/08/20 05:05:45;;;;;;;3.72;1.83;;;;;;;;;;4968685;28;20102;-83
2022/08/20 05:08:15;;;;;;;2.90;1.92;;;;;;;;;;4964029;28;20082;-83
2022/08/20 05:10:47;;;;;;;4.07;2.33;;;;;;;;;;4963790;28;20113;-83
2022/08/20 05:13:16;;;;;;;4.40;2.40;;;;;;;;;;4964577;28;20050;-83
2022/08/20 05:15:46;;;;;;;3.70;1.30;;;;;;;;;;4968870;28;20053;-83
2022/08/20 05:18:17;;;;;;;3.17;1.73;;;;;;;;;;4966925;28;20082;-83
2022/08/20 05:20:46;;;;;;;5.13;1.42;;;;;;;;;;4972879;28;20130;-83
2022/08/20 05:23:17;;;;;;;3.97;2.03;;;;;;;;;;4968841;28;20117;-83
2022/08/20 05:25:47;;;;;;;6.78;2.70;;;;;;;;;;4959863;28;20420;-83
2022/08/20 05:28:19;;;;;;;2.88;1.95;;;;;;;;;;4948014;28;20093;-83
2022/08/20 05:30:47;;;;;;;3.95;1.80;;;;;;;;;;4951602;28;20130;-83
2022/08/20 05:33:17;;;;;;;3.20;2.08;;;;;;;;;;4948459;28;20083;-83
2022/08/20 05:35:46;;;;;;;3.60;1.15;;;;;;;;;;4952905;28;20067;-83
2022/08/20 05:38:17;;;;;;;2.85;1.85;;;;;;;;;;4950848;28;20137;-83
2022/08/20 05:40:46;;;;;;;2.38;1.75;;;;;;;;;;4948694;28;20150;-82
2022/08/20 05:43:15;;;;;;;2.60;1.45;;;;;;;;;;4948853;28;20377;-82
2022/08/20 05:45:44;;;;;;;2.92;2.03;;;;;;;;;;4950386;28;20304;-82
2022/08/20 05:48:14;;;;;;;5.28;2.20;;;;;;;;;;4949833;28;20047;-82
2022/08/20 05:50:43;;;;;;;1.13;1.00;;;;;;;;;;4950411;28;20051;-83
2022/08/20 05:53:12;;;;;;;2.25;1.73;;;;;;;;;;4950988;28;20055;-82
2022/08/20 05:55:43;;;;;;;3.80;1.50;;;;;;;;;;4950741;28;20160;-82
2022/08/20 05:58:15;;;;;;;4.53;1.75;;;;;;;;;;4950039;28;20139;-82
2022/08/20 06:00:44;;;;;;;3.30;1.70;;;;;;;;;;4949453;28;20051;-82
2022/08/20 06:05:58;;;;;;;3.03;1.63;;;;;;;;;;4950041;28;20081;-83
2022/08/20 06:08:27;;;;;;;3.00;1.83;;;;;;;;;;4951814;28;20133;-82
2022/08/20 06:10:57;;;;;;;2.95;1.70;;;;;;;;;;4948140;28;20055;-82
2022/08/20 06:13:26;;;;;;;3.08;2.03;;;;;;;;;;4949912;28;20571;-82
2022/08/20 06:15:54;;;;;;;2.50;1.63;;;;;;;;;;4961198;28;20047;-82
2022/08/20 06:18:25;;;;;;;3.33;1.38;;;;;;;;;;4971442;28;20057;-82
2022/08/20 06:20:56;;;;;;;5.13;1.85;;;;;;;;;;4968876;28;20503;-82
2022/08/20 06:23:24;;;;;;;2.40;1.70;;;;;;;;;;4969564;28;20059;-82
2022/08/20 06:25:53;;;;;;;3.78;2.05;;;;;;;;;;4959211;28;20044;-82
2022/08/20 06:28:23;;;;;;;2.30;1.45;;;;;;;;;;4952059;28;20486;-82
2022/08/20 06:30:52;;;;;;;2.75;1.52;;;;;;;;;;4948427;28;20093;-82
2022/08/20 06:33:20;;;;;;;1.90;1.40;;;;;;;;;;4951769;28;20541;-82
2022/08/20 06:35:48;;;;;;;4.03;1.92;;;;;;;;;;4934691;28;20086;-82
2022/08/20 06:38:17;;;;;;;4.90;1.92;;;;;;;;;;4950385;28;20085;-82
2022/08/20 06:40:46;;;;;;;2.63;1.20;;;;;;;;;;4951668;28;20082;-82
2022/08/20 06:43:14;;;;;;;3.55;2.28;;;;;;;;;;4950563;28;20138;-81
2022/08/20 06:45:44;;;;;;;2.03;1.23;;;;;;;;;;4948941;28;20173;-82
2022/08/20 06:48:13;;;;;;;2.47;1.30;;;;;;;;;;4950243;28;20129;-82
2022/08/20 06:50:43;;;;;;;2.63;1.58;;;;;;;;;;4947255;28;20138;-82
2022/08/20 06:53:16;;;;;;;1.85;1.13;;;;;;;;;;4947821;28;20459;-82
2022/08/20 06:55:46;;;;;;;8.82;2.28;;;;;;;;;;4947722;28;20497;-82
2022/08/20 06:58:15;;;;;;;3.05;1.27;;;;;;;;;;4949739;28;20043;-82
2022/08/20 07:01:19;;;;;;;1.85;1.08;;;;;;;;;;4949116;28;20051;-82
2022/08/20 07:03:49;;;;;;;3.67;1.75;;;;;;;;;;4945251;28;20393;-82
2022/08/20 07:06:24;;;;;;;4.20;2.13;;;;;;;;;;4952765;28;20059;-81
2022/08/20 07:08:53;;;;;;;3.50;1.58;;;;;;;;;;4950000;28;20051;-82
2022/08/20 07:11:24;;;;;;;5.80;2.15;;;;;;;;;;4948611;28;20217;-82
2022/08/20 07:13:56;;;;;;;3.38;1.45;;;;;;;;;;4949375;28;20063;-82
2022/08/20 07:16:27;;;;;;;2.45;1.42;;;;;;;;;;4947778;28;20093;-83
2022/08/20 07:18:57;;;;;;;5.38;1.42;;;;;;;;;;4951839;28;20051;-82
2022/08/20 07:21:25;;;;;;;1.23;0.98;;;;;;;;;;4948961;28;20125;-82
2022/08/20 07:23:54;;;;;;;2.53;1.02;;;;;;;;;;4947034;28;20518;-81
2022/08/20 07:26:22;;;;;;;2.03;1.30;;;;;;;;;;4959138;28;20468;-82
2022/08/20 07:28:51;;;;;;;4.18;1.55;;;;;;;;;;4967159;28;20078;-83
2022/08/20 07:34:11;;;;;;;1.48;1.20;;;;;;;;;;4968050;28;20105;-82
2022/08/20 07:36:39;;;;;;;1.52;1.15;;;;;;;;;;4966021;28;20152;-82
2022/08/20 07:39:08;;;;;;;2.40;1.55;;;;;;;;;;4962685;28;20162;-82
2022/08/20 07:41:36;;;;;;;3.97;1.63;;;;;;;;;;4963896;28;20055;-82
2022/08/20 07:44:05;;;;;;;2.47;1.55;;;;;;;;;;4964346;28;20055;-82
2022/08/20 07:46:33;;;;;;;2.25;1.60;;;;;;;;;;4950991;28;20054;-82
2022/08/20 07:49:04;;;;;;;2.70;1.83;;;;;;;;;;4948884;28;20541;-82
2022/08/20 07:51:36;;;;;;;7.15;1.73;;;;;;;;;;4940763;28;20517;-82
2022/08/20 07:54:05;;;;;;;2.63;1.48;;;;;;;;;;4942469;28;20344;-82
2022/08/20 07:56:33;;;;;;;2.55;1.73;;;;;;;;;;4947908;28;20576;-82
2022/08/20 07:59:05;;;;;;;2.03;1.42;;;;;;;;;;4946530;28;20043;-82
2022/08/20 08:01:34;;;;;;;2.08;1.50;;;;;;;;;;4947857;28;20331;-82
2022/08/20 08:04:03;;;;;;;3.25;1.50;;;;;;;;;;4945619;28;20051;-82
2022/08/20 08:06:35;;;;;;;2.95;1.52;;;;;;;;;;4945084;28;20070;-83
2022/08/20 08:09:06;;;;;;;5.85;1.23;;;;;;;;;;4942786;28;20057;-83
2022/08/20 08:11:36;;;;;;;3.83;1.85;;;;;;;;;;4943088;28;20059;-82
2022/08/20 08:14:07;;;;;;;3.20;1.45;;;;;;;;;;4944591;28;20344;-83
2022/08/20 08:16:36;;;;;;;2.95;1.63;;;;;;;;;;4942510;28;20055;-82
2022/08/20 08:19:05;;;;;;;4.03;1.23;;;;;;;;;;4944895;28;20098;-82
2022/08/20 08:21:34;;;;;;;3.13;1.42;;;;;;;;;;4945382;28;20122;-83
2022/08/20 08:24:03;;;;;;;1.38;1.02;;;;;;;;;;4942699;28;20053;-82
2022/08/20 08:26:33;;;;;;;3.63;1.42;;;;;;;;;;4959975;28;20043;-83
2022/08/20 08:29:01;;;;;;;3.40;1.00;;;;;;;;;;4962408;28;20054;-82
2022/08/20 08:31:29;;;;;;;2.58;1.83;;;;;;;;;;4965738;28;20121;-83
2022/08/20 08:33:58;;;;;;;2.25;1.25;;;;;;;;;;4961435;28;20074;-82
2022/08/20 08:36:26;;;;;;;3.67;1.95;;;;;;;;;;4961090;28;20131;-83
2022/08/20 08:38:55;;;;;;;3.28;1.00;;;;;;;;;;4960213;28;20054;-83
2022/08/20 08:41:35;;;;;;;1.90;1.02;;;;;;;;;;4962034;28;20504;-83
2022/08/20 08:44:06;;;;;;;2.38;0.95;;;;;;;;;;4966737;28;20506;-82
2022/08/20 08:46:39;;;;;;;2.55;1.63;;;;;;;;;;4963904;28;20121;-83
2022/08/20 08:49:09;;;;;;;2.95;1.75;;;;;;;;;;4969389;28;20158;-82
2022/08/20 08:51:40;;;;;;;1.13;1.00;;;;;;;;;;4966812;28;20078;-82
2022/08/20 08:54:09;;;;;;;1.38;1.25;;;;;;;;;;4965245;28;20094;-82
2022/08/20 08:56:40;;;;;;;4.38;2.67;;;;;;;;;;4966679;28;20062;-84
2022/08/20 08:59:09;;;;;;;1.35;0.88;;;;;;;;;;4970529;28;22856;-83
2022/08/20 09:01:44;;;;;;;1.60;0.82;;;;;;;;;;4961444;28;20126;-82
2022/08/20 09:04:24;;;;;;;1.73;0.90;;;;;;;;;;4967276;28;20054;-83
2022/08/20 09:06:53;;;;;;;2.70;1.83;;;;;;;;;;4967827;28;20396;-83
2022/08/20 09:09:23;;;;;;;1.92;1.35;;;;;;;;;;4967121;28;20494;-83
2022/08/20 09:11:54;;;;;;;3.13;1.48;;;;;;;;;;4968023;28;20054;-82
2022/08/20 09:14:23;;;;;;;2.42;1.05;;;;;;;;;;4965137;28;20680;-82
2022/08/20 09:16:52;;;;;;;1.58;0.95;;;;;;;;;;4965354;28;20043;-82
2022/08/20 09:19:21;;;;;;;1.55;1.08;;;;;;;;;;4962636;28;20055;-82
2022/08/20 09:21:49;;;;;;;1.48;1.30;;;;;;;;;;4964119;28;20066;-83
2022/08/20 09:24:18;;;;;;;2.20;1.48;;;;;;;;;;4964947;28;20518;-82
2022/08/20 09:26:46;;;;;;;1.83;1.20;;;;;;;;;;4960066;28;20078;-81
2022/08/20 09:29:16;;;;;;;1.30;0.93;;;;;;;;;;4965046;28;20597;-83
2022/08/20 09:31:44;;;;;;;1.52;1.23;;;;;;;;;;4966334;28;20082;-83
2022/08/20 09:34:13;;;;;;;2.70;1.60;;;;;;;;;;4967620;28;20047;-83
2022/08/20 09:36:42;;;;;;;1.30;0.90;;;;;;;;;;4967876;28;20125;-83
2022/08/20 09:39:11;;;;;;;2.85;1.45;;;;;;;;;;4966247;28;20437;-82
2022/08/20 09:41:40;;;;;;;1.98;1.17;;;;;;;;;;4967942;28;20348;-86
2022/08/20 09:44:08;;;;;;;1.58;1.27;;;;;;;;;;4963642;28;20133;-82
2022/08/20 09:46:38;;;;;;;1.38;1.25;;;;;;;;;;4969155;28;20046;-82
2022/08/20 09:49:06;;;;;;;2.33;0.95;;;;;;;;;;4966300;28;20747;-82
2022/08/20 09:51:38;;;;;;;2.10;1.45;;;;;;;;;;4966722;28;20059;-82
2022/08/20 09:54:06;;;;;;;4.63;1.90;;;;;;;;;;4967031;28;20081;-82
2022/08/20 09:56:35;;;;;;;3.05;0.93;;;;;;;;;;4968892;28;20074;-82
2022/08/20 09:59:04;;;;;;;2.97;1.75;;;;;;;;;;4963688;28;20078;-82
2022/08/20 10:01:33;;;;;;;2.83;1.67;;;;;;;;;;4960140;28;20046;-82
2022/08/20 10:04:03;;;;;;;2.17;1.48;;;;;;;;;;4955892;28;20051;-88
2022/08/20 10:06:32;;;;;;;2.65;1.58;;;;;;;;;;4960296;28;20147;-89
2022/08/20 10:09:05;;;;;;;1.38;1.15;;;;;;;;;;4945128;28;20082;-86
2022/08/20 10:11:33;;;;;;;4.10;1.88;;;;;;;;;;4943125;28;20110;-86
2022/08/20 10:14:02;;;;;;;2.58;1.42;;;;;;;;;;4947469;28;20146;-86
2022/08/20 10:16:30;;;;;;;2.78;1.63;;;;;;;;;;4944090;28;20657;-87
2022/08/20 10:18:59;;;;;;;2.88;2.00;;;;;;;;;;4945413;28;20053;-87
2022/08/20 10:21:40;;;;;;;1.75;1.08;;;;;;;;;;4951192;28;20070;-89
2022/08/20 10:24:09;;;;;;;3.00;2.20;;;;;;;;;;4951776;28;20046;-86
2022/08/20 10:26:39;;;;;;;1.58;1.02;;;;;;;;;;4950311;28;20130;-86
2022/08/20 10:29:07;;;;;;;3.35;1.40;;;;;;;;;;4939683;28;20569;-89
2022/08/20 10:31:36;;;;;;;1.98;1.25;;;;;;;;;;4946209;28;20515;-88
2022/08/20 10:34:04;;;;;;;2.83;1.95;;;;;;;;;;4942626;28;20154;-88
2022/08/20 10:36:35;;;;;;;2.65;1.70;;;;;;;;;;4942656;28;20515;-88
2022/08/20 10:39:05;;;;;;;1.25;1.10;;;;;;;;;;4938961;28;20516;-88
2022/08/20 10:41:33;;;;;;;2.90;1.63;;;;;;;;;;4948807;28;20574;-87
2022/08/20 10:44:06;;;;;;;3.30;1.33;;;;;;;;;;4946194;28;20615;-83
2022/08/20 10:46:35;;;;;;;1.45;1.27;;;;;;;;;;4945542;28;20154;-83
2022/08/20 10:49:03;;;;;;;4.78;1.83;;;;;;;;;;4945723;28;20082;-84
2022/08/20 10:51:32;;;;;;;3.45;1.75;;;;;;;;;;4947498;28;20375;-84
2022/08/20 10:54:00;;;;;;;1.83;1.50;;;;;;;;;;4944701;28;20405;-84
2022/08/20 10:56:35;;;;;;;3.83;1.98;;;;;;;;;;4944646;28;20078;-83
2022/08/20 10:59:03;;;;;;;1.80;1.20;;;;;;;;;;4943044;28;20413;-84
2022/08/20 11:01:47;;;;;;;2.22;1.55;;;;;;;;;;4944369;28;20462;-84
2022/08/20 11:04:15;;;;;;;1.85;1.35;;;;;;;;;;4943722;28;20047;-84
2022/08/20 11:06:43;;;;;;;3.97;2.10;;;;;;;;;;4945096;28;20133;-84
2022/08/20 11:09:12;;;;;;;4.50;2.20;;;;;;;;;;4946743;28;20137;-84
2022/08/20 11:11:42;;;;;;;1.92;1.65;;;;;;;;;;4950263;28;20582;-83
2022/08/20 11:14:10;;;;;;;2.25;1.50;;;;;;;;;;4942197;28;20139;-83
2022/08/20 11:16:51;;;;;;;6.70;2.60;;;;;;;;;;4949114;28;21234;-83
2022/08/20 11:19:19;;;;;;;4.47;1.98;;;;;;;;;;4964322;28;20058;-82
2022/08/20 11:21:48;;;;;;;1.95;1.58;;;;;;;;;;4962885;28;20047;-82
2022/08/20 11:24:17;;;;;;;2.95;2.17;;;;;;;;;;4966534;28;20134;-84
2022/08/20 11:26:49;;;;;;;4.72;1.98;;;;;;;;;;4960822;28;20083;-82
2022/08/20 11:29:17;;;;;;;2.35;1.73;;;;;;;;;;4948596;28;20109;-81
2022/08/20 11:31:46;;;;;;;4.75;2.42;;;;;;;;;;4943216;28;20071;-81
2022/08/20 11:34:14;;;;;;;5.53;2.22;;;;;;;;;;4948575;28;20051;-79
2022/08/20 11:36:42;;;;;;;3.88;2.22;;;;;;;;;;4946458;28;20066;-79
2022/08/20 11:39:11;;;;;;;4.18;2.53;;;;;;;;;;4966920;28;20082;-81
2022/08/20 11:41:39;;;;;;;3.45;2.53;;;;;;;;;;4965163;28;20039;-80
2022/08/20 11:44:14;;;;;;;4.28;2.22;;;;;;;;;;4964532;28;20061;-81
2022/08/20 11:46:48;;;;;;;1.48;1.13;;;;;;;;;;4969741;28;20058;-81
2022/08/20 11:49:17;;;;;;;7.68;2.75;;;;;;;;;;4956799;28;20144;-80
2022/08/20 11:51:45;;;;;;;3.90;2.10;;;;;;;;;;4969956;28;20090;-80
2022/08/20 11:54:17;;;;;;;4.45;2.20;;;;;;;;;;4967528;28;20058;-80
2022/08/20 11:56:46;;;;;;;5.28;2.53;;;;;;;;;;4970059;28;20101;-79
2022/08/20 11:59:17;;;;;;;6.05;3.15;;;;;;;;;;4970484;28;20082;-79
2022/08/20 12:01:45;;;;;;;5.28;3.33;;;;;;;;;;4968674;28;20090;-79
2022/08/20 12:04:30;;;;;;;5.65;2.67;;;;;;;;;;4968587;28;20051;-80
2022/08/20 12:07:08;;;;;;;5.40;3.53;;;;;;;;;;4969814;28;20046;-80
2022/08/20 12:09:37;;;;;;;;;;;;;;;;;;4959157;28;20043;-82
2022/08/20 12:12:09;;;;;;;5.22;2.67;;;;;;;;;;4962356;28;20367;-82
2022/08/20 12:14:42;;;;;;;5.07;2.65;;;;;;;;;;4968573;28;20109;-82
2022/08/20 12:17:11;;;;;;;5.68;3.13;;;;;;;;;;4968120;28;20134;-82
2022/08/20 12:19:40;;;;;;;5.40;2.55;;;;;;;;;;4966295;28;20047;-82
2022/08/20 12:22:09;;;;;;;4.85;2.80;;;;;;;;;;4967427;28;20153;-82
2022/08/20 12:24:53;;;;;;;8.20;2.65;;;;;;;;;;4963631;28;20061;-82
2022/08/20 12:27:22;;;;;;;5.65;2.83;;;;;;;;;;4969744;28;20161;-82
2022/08/20 12:29:52;;;;;;;4.30;2.60;;;;;;;;;;4966313;28;20043;-82
2022/08/20 12:32:21;;;;;;;5.13;2.85;;;;;;;;;;4965774;28;20137;-82
2022/08/20 12:34:50;;;;;;;5.32;3.15;;;;;;;;;;4968928;28;20078;-82
2022/08/20 12:37:20;;;;;;;5.15;3.08;;;;;;;;;;4966849;28;20575;-82
2022/08/20 12:39:49;;;;;;;5.97;3.00;;;;;;;;;;4969431;28;20102;-82
2022/08/20 12:42:18;;;;;;;4.20;2.38;;;;;;;;;;4968495;28;20047;-82
2022/08/20 12:44:47;;;;;;;4.70;2.47;;;;;;;;;;4967304;28;20109;-82
2022/08/20 12:47:18;;;;;;;4.20;2.38;;;;;;;;;;4966367;28;20086;-82
2022/08/20 12:49:48;;;;;;;3.15;2.25;;;;;;;;;;4967838;28;20562;-81
2022/08/20 12:52:17;;;;;;;4.80;3.17;;;;;;;;;;4967052;28;20105;-82
2022/08/20 12:54:46;;;;;;;4.00;2.92;;;;;;;;;;4970231;28;20058;-82
2022/08/20 12:57:15;;;;;;;5.55;2.63;;;;;;;;;;4968781;28;20470;-82
2022/08/20 12:59:44;;;;;;;5.55;2.42;;;;;;;;;;4968918;28;20047;-81
2022/08/20 13:02:12;;;;;;;7.47;3.45;;;;;;;;;;4967300;28;20086;-82
2022/08/20 13:04:47;;;;;;;6.22;2.67;;;;;;;;;;4968630;28;20510;-81
2022/08/20 13:07:16;;;;;;;6.20;2.90;;;;;;;;;;4960330;28;20464;-83
2022/08/20 13:09:44;;;;;;;5.35;2.05;;;;;;;;;;4966097;28;20046;-82
2022/08/20 13:12:14;;;;;;;5.00;2.47;;;;;;;;;;4967194;28;20127;-82
2022/08/20 13:14:42;;;;;;;4.82;2.95;;;;;;;;;;4967339;28;20538;-82
2022/08/20 13:17:11;;;;;;;5.15;2.53;;;;;;;;;;4966776;28;20566;-81
2022/08/20 13:19:40;;;;;;;5.65;1.80;;;;;;;;;;4966916;28;20039;-81
2022/08/20 13:22:09;;;;;;;5.40;2.45;;;;;;;;;;4965419;28;20082;-81
2022/08/20 13:24:38;;;;;;;3.25;1.90;;;;;;;;;;4968320;28;20086;-81
2022/08/20 13:27:08;;;;;;;4.55;2.35;;;;;;;;;;4967487;28;20138;-81
2022/08/20 13:29:37;;;;;;;3.92;2.25;;;;;;;;;;4962814;28;20081;-81
2022/08/20 13:32:05;;;;;;;3.25;1.90;;;;;;;;;;4966860;28;20777;-81
2022/08/20 13:34:34;;;;;;;4.45;2.20;;;;;;;;;;4968892;28;20134;-81
2022/08/20 13:37:02;;;;;;;5.20;2.90;;;;;;;;;;4971686;28;20835;-81
2022/08/20 13:39:32;;;;;;;4.72;2.05;;;;;;;;;;4967823;28;20133;-81
2022/08/20 13:42:00;;;;;;;2.17;1.52;;;;;;;;;;4969129;28;20134;-82
2022/08/20 13:44:29;;;;;;;2.63;1.85;;;;;;;;;;4970517;28;20181;-82
2022/08/20 13:47:00;;;;;;;3.03;2.13;;;;;;;;;;4969300;28;20117;-81
2022/08/20 13:49:29;;;;;;;2.20;1.42;;;;;;;;;;4970247;28;20089;-82
2022/08/20 13:52:01;;;;;;;1.83;1.15;;;;;;;;;;4968162;28;20073;-82
2022/08/20 13:54:31;;;;;;;2.17;1.40;;;;;;;;;;4964690;28;20418;-82
2022/08/20 13:57:04;;;;;;;7.05;2.03;;;;;;;;;;4969937;28;20097;-82
2022/08/20 13:59:35;;;;;;;4.22;2.03;;;;;;;;;;4968326;28;20098;-82
2022/08/20 14:02:03;;;;;;;2.35;1.25;;;;;;;;;;4966810;28;20130;-82
2022/08/20 14:04:34;;;;;;;3.78;1.50;;;;;;;;;;4971646;28;20043;-82
2022/08/20 14:07:09;;;;;;;2.83;1.65;;;;;;;;;;4971095;28;20074;-82
2022/08/20 14:09:39;;;;;;;2.28;1.27;;;;;;;;;;4969039;28;20129;-81
2022/08/20 14:12:09;;;;;;;3.30;1.48;;;;;;;;;;4973051;28;20109;-82
2022/08/20 14:14:37;;;;;;;2.53;1.42;;;;;;;;;;4966599;28;20058;-81
2022/08/20 14:17:16;;;;;;;3.15;1.65;;;;;;;;;;4968247;28;20081;-81
2022/08/20 14:19:45;;;;;;;4.32;1.75;;;;;;;;;;4962199;28;20039;-82
2022/08/20 14:22:13;;;;;;;2.30;1.55;;;;;;;;;;4965389;28;20449;-82
2022/08/20 14:24:43;;;;;;;3.08;1.42;;;;;;;;;;4964098;28;20050;-82
2022/08/20 14:27:13;;;;;;;2.08;1.33;;;;;;;;;;4965213;28;20101;-82
2022/08/20 14:29:43;;;;;;;1.77;1.23;;;;;;;;;;4968766;28;20125;-82
2022/08/20 14:32:11;;;;;;;1.52;1.08;;;;;;;;;;4967279;28;20580;-82
2022/08/20 14:34:39;;;;;;;2.00;1.08;;;;;;;;;;4968845;28;20202;-82
2022/08/20 14:37:12;;;;;;;1.05;0.80;;;;;;;;;;4965678;28;20074;-82
2022/08/20 14:39:41;;;;;;;1.58;0.63;;;;;;;;;;4966064;28;20046;-81
2022/08/20 14:42:11;;;;;;;2.47;0.65;;;;;;;;;;4965778;28;20082;-82
2022/08/20 14:44:40;;;;;;;1.17;0.45;;;;;;;;;;4967849;28;20055;-82
2022/08/20 14:47:12;;;;;;;0.28;0.25;;;;;;;;;;4965952;28;20082;-82
2022/08/20 14:49:40;;;;;;;1.50;1.00;;;;;;;;;;4958774;28;20129;-80
2022/08/20 14:52:09;;;;;;;0.63;0.32;;;;;;;;;;4961319;28;20617;-79
2022/08/20 14:54:37;;;;;;;0.63;0.40;;;;;;;;;;4962775;28;20050;-79
2022/08/20 14:57:06;;;;;;;1.05;0.57;;;;;;;;;;4966615;28;20043;-79
2022/08/20 14:59:41;;;;;;;0.68;0.47;;;;;;;;;;4966611;28;20046;-80
2022/08/20 15:02:11;;;;;;;0.52;0.50;;;;;;;;;;4960550;28;20055;-80
2022/08/20 15:04:40;;;;;;;0.82;0.60;;;;;;;;;;4966832;28;20165;-79
2022/08/20 15:07:16;;;;;;;1.83;0.70;;;;;;;;;;4964883;28;20494;-79
2022/08/20 15:09:46;;;;;;;0.20;0.10;;;;;;;;;;4962335;28;20093;-80
2022/08/20 15:12:14;;;;;;;0.20;0.20;;;;;;;;;;4964091;28;20138;-80